sensor_id;sensor_type;location;lat;lon;timestamp;pressure;altitude;pressure_sealevel;temperature;humidity
77979;BME280;67169;50.268;8.694;2023-03-14T00:01:21;97709.34;;;8.69;89.00
77979;BME280;67169;50.268;8.694;2023-03-14T00:03:49;97692.50;;;8.67;88.96
77979;BME280;67169;50.268;8.694;2023-03-14T00:06:16;97677.31;;;8.67;89.18
77979;BME280;67169;50.268;8.694;2023-03-14T00:08:43;97679.72;;;8.58;89.35
77979;BME280;67169;50.268;8.694;2023-03-14T00:11:11;97686.94;;;8.70;89.42
77979;BME280;67169;50.268;8.694;2023-03-14T00:13:38;97697.59;;;8.71;89.33
77979;BME280;67169;50.268;8.694;2023-03-14T00:16:08;97679.41;;;8.62;89.42
77979;BME280;67169;50.268;8.694;2023-03-14T00:18:35;97708.13;;;8.74;89.16
77979;BME280;67169;50.268;8.694;2023-03-14T00:21:03;97715.28;;;8.74;89.24
77979;BME280;67169;50.268;8.694;2023-03-14T00:23:32;97714.88;;;8.80;88.98
77979;BME280;67169;50.268;8.694;2023-03-14T00:25:59;97708.28;;;8.86;88.91
77979;BME280;67169;50.268;8.694;2023-03-14T00:28:26;97701.88;;;8.88;89.07
77979;BME280;67169;50.268;8.694;2023-03-14T00:30:53;97719.88;;;8.86;89.12
77979;BME280;67169;50.268;8.694;2023-03-14T00:33:21;97720.06;;;8.83;89.10
77979;BME280;67169;50.268;8.694;2023-03-14T00:35:55;97712.59;;;8.88;89.02
77979;BME280;67169;50.268;8.694;2023-03-14T00:38:21;97723.41;;;8.87;89.02
77979;BME280;67169;50.268;8.694;2023-03-14T00:40:49;97718.53;;;8.79;89.05
77979;BME280;67169;50.268;8.694;2023-03-14T00:43:16;97723.13;;;8.91;88.54
77979;BME280;67169;50.268;8.694;2023-03-14T00:45:43;97715.47;;;8.85;88.72
77979;BME280;67169;50.268;8.694;2023-03-14T00:48:09;97709.34;;;8.83;89.17
77979;BME280;67169;50.268;8.694;2023-03-14T00:50:37;97715.84;;;8.79;89.44
77979;BME280;67169;50.268;8.694;2023-03-14T00:53:04;97701.13;;;8.72;89.60
77979;BME280;67169;50.268;8.694;2023-03-14T00:55:30;97686.22;;;8.68;89.87
77979;BME280;67169;50.268;8.694;2023-03-14T00:57:57;97658.81;;;8.63;90.42
77979;BME280;67169;50.268;8.694;2023-03-14T01:00:23;97652.25;;;8.54;90.32
77979;BME280;67169;50.268;8.694;2023-03-14T01:02:50;97645.25;;;8.51;90.43
77979;BME280;67169;50.268;8.694;2023-03-14T01:05:16;97652.72;;;8.46;90.80
77979;BME280;67169;50.268;8.694;2023-03-14T01:07:44;97652.34;;;8.38;91.21
77979;BME280;67169;50.268;8.694;2023-03-14T01:10:11;97661.72;;;8.45;91.04
77979;BME280;67169;50.268;8.694;2023-03-14T01:12:37;97670.72;;;8.44;91.13
77979;BME280;67169;50.268;8.694;2023-03-14T01:15:05;97666.34;;;8.43;90.87
77979;BME280;67169;50.268;8.694;2023-03-14T01:17:31;97669.09;;;8.42;90.63
77979;BME280;67169;50.268;8.694;2023-03-14T01:19:59;97673.47;;;8.43;90.50
77979;BME280;67169;50.268;8.694;2023-03-14T01:22:25;97681.63;;;8.41;90.56
77979;BME280;67169;50.268;8.694;2023-03-14T01:24:53;97686.97;;;8.41;90.56
77979;BME280;67169;50.268;8.694;2023-03-14T01:27:20;97694.91;;;8.43;90.16
77979;BME280;67169;50.268;8.694;2023-03-14T01:29:46;97676.47;;;8.38;90.22
77979;BME280;67169;50.268;8.694;2023-03-14T01:32:13;97671.03;;;8.40;90.28
77979;BME280;67169;50.268;8.694;2023-03-14T01:34:39;97681.63;;;8.41;90.11
77979;BME280;67169;50.268;8.694;2023-03-14T01:37:06;97661.84;;;8.44;89.63
77979;BME280;67169;50.268;8.694;2023-03-14T01:39:33;97661.91;;;8.42;89.88
77979;BME280;67169;50.268;8.694;2023-03-14T01:42:01;97646.81;;;8.41;90.10
77979;BME280;67169;50.268;8.694;2023-03-14T01:44:27;97634.13;;;8.29;89.87
77979;BME280;67169;50.268;8.694;2023-03-14T01:46:54;97636.19;;;8.40;89.28
77979;BME280;67169;50.268;8.694;2023-03-14T01:49:24;97645.06;;;8.54;88.40
77979;BME280;67169;50.268;8.694;2023-03-14T01:51:56;97633.78;;;8.64;87.53
77979;BME280;67169;50.268;8.694;2023-03-14T01:54:27;97629.06;;;8.67;86.93
77979;BME280;67169;50.268;8.694;2023-03-14T01:56:57;97618.78;;;8.74;86.35
77979;BME280;67169;50.268;8.694;2023-03-14T01:59:30;97620.03;;;8.83;85.45
77979;BME280;67169;50.268;8.694;2023-03-14T02:01:58;97588.75;;;8.69;85.04
77979;BME280;67169;50.268;8.694;2023-03-14T02:04:28;97601.91;;;8.86;85.08
77979;BME280;67169;50.268;8.694;2023-03-14T02:07:00;97598.06;;;8.90;84.41
77979;BME280;67169;50.268;8.694;2023-03-14T02:09:30;97577.03;;;8.84;84.44
77979;BME280;67169;50.268;8.694;2023-03-14T02:11:57;97580.16;;;8.91;84.00
77979;BME280;67169;50.268;8.694;2023-03-14T02:14:33;97577.00;;;8.98;84.19
77979;BME280;67169;50.268;8.694;2023-03-14T02:17:01;97575.81;;;9.02;83.42
77979;BME280;67169;50.268;8.694;2023-03-14T02:19:43;97571.19;;;9.04;83.28
77979;BME280;67169;50.268;8.694;2023-03-14T02:22:15;97567.44;;;9.07;83.21
77979;BME280;67169;50.268;8.694;2023-03-14T02:24:46;97579.47;;;9.14;82.71
77979;BME280;67169;50.268;8.694;2023-03-14T02:27:18;97571.00;;;9.08;82.83
77979;BME280;67169;50.268;8.694;2023-03-14T02:29:50;97571.31;;;9.03;83.00
77979;BME280;67169;50.268;8.694;2023-03-14T02:32:18;97556.19;;;9.02;83.06
77979;BME280;67169;50.268;8.694;2023-03-14T02:34:49;97553.34;;;8.91;85.33
77979;BME280;67169;50.268;8.694;2023-03-14T02:37:21;97568.44;;;8.79;85.89
77979;BME280;67169;50.268;8.694;2023-03-14T02:39:49;97557.06;;;8.75;86.10
77979;BME280;67169;50.268;8.694;2023-03-14T02:42:17;97556.47;;;8.85;84.93
77979;BME280;67169;50.268;8.694;2023-03-14T02:44:54;97550.44;;;8.81;85.54
77979;BME280;67169;50.268;8.694;2023-03-14T02:47:26;97542.50;;;8.79;85.21
77979;BME280;67169;50.268;8.694;2023-03-14T02:49:59;97546.59;;;8.85;84.80
77979;BME280;67169;50.268;8.694;2023-03-14T02:52:26;97550.78;;;8.89;84.20
77979;BME280;67169;50.268;8.694;2023-03-14T02:54:52;97554.00;;;8.94;83.89
77979;BME280;67169;50.268;8.694;2023-03-14T02:57:20;97563.53;;;8.86;84.93
77979;BME280;67169;50.268;8.694;2023-03-14T02:59:47;97560.94;;;8.84;84.87
77979;BME280;67169;50.268;8.694;2023-03-14T03:02:13;97571.25;;;8.90;84.38
77979;BME280;67169;50.268;8.694;2023-03-14T03:04:40;97555.16;;;8.90;84.27
77979;BME280;67169;50.268;8.694;2023-03-14T03:07:06;97560.53;;;8.90;84.36
77979;BME280;67169;50.268;8.694;2023-03-14T03:09:32;97561.50;;;8.89;84.24
77979;BME280;67169;50.268;8.694;2023-03-14T03:11:59;97551.31;;;8.94;83.67
77979;BME280;67169;50.268;8.694;2023-03-14T03:14:27;97550.91;;;9.00;83.44
77979;BME280;67169;50.268;8.694;2023-03-14T03:16:53;97556.28;;;9.00;83.35
77979;BME280;67169;50.268;8.694;2023-03-14T03:19:20;97568.72;;;9.01;83.22
77979;BME280;67169;50.268;8.694;2023-03-14T03:21:46;97572.72;;;9.09;82.64
77979;BME280;67169;50.268;8.694;2023-03-14T03:24:13;97565.28;;;8.99;83.17
77979;BME280;67169;50.268;8.694;2023-03-14T03:26:40;97557.03;;;9.02;83.05
77979;BME280;67169;50.268;8.694;2023-03-14T03:29:06;97561.56;;;9.02;82.92
77979;BME280;67169;50.268;8.694;2023-03-14T03:31:36;97550.19;;;8.98;83.32
77979;BME280;67169;50.268;8.694;2023-03-14T03:34:03;97527.06;;;8.83;83.61
77979;BME280;67169;50.268;8.694;2023-03-14T03:36:29;97548.56;;;8.96;83.40
77979;BME280;67169;50.268;8.694;2023-03-14T03:38:56;97539.00;;;8.92;83.25
77979;BME280;67169;50.268;8.694;2023-03-14T03:41:22;97536.22;;;8.93;82.94
77979;BME280;67169;50.268;8.694;2023-03-14T03:43:49;97539.75;;;8.94;83.38
77979;BME280;67169;50.268;8.694;2023-03-14T03:46:15;97541.03;;;8.88;84.22
77979;BME280;67169;50.268;8.694;2023-03-14T03:48:43;97549.63;;;8.66;86.60
77979;BME280;67169;50.268;8.694;2023-03-14T03:51:12;97535.81;;;8.45;88.12
77979;BME280;67169;50.268;8.694;2023-03-14T03:53:40;97524.72;;;8.37;88.77
77979;BME280;67169;50.268;8.694;2023-03-14T03:56:07;97523.41;;;8.30;89.46
77979;BME280;67169;50.268;8.694;2023-03-14T03:58:34;97507.25;;;8.17;89.80
77979;BME280;67169;50.268;8.694;2023-03-14T04:01:00;97506.97;;;8.22;89.48
77979;BME280;67169;50.268;8.694;2023-03-14T04:03:27;97496.34;;;8.20;89.71
77979;BME280;67169;50.268;8.694;2023-03-14T04:05:59;97498.38;;;8.17;89.84
77979;BME280;67169;50.268;8.694;2023-03-14T04:08:26;97496.16;;;8.23;89.07
77979;BME280;67169;50.268;8.694;2023-03-14T04:10:55;97502.38;;;8.24;88.74
77979;BME280;67169;50.268;8.694;2023-03-14T04:13:21;97488.97;;;8.24;88.15
77979;BME280;67169;50.268;8.694;2023-03-14T04:15:47;97503.03;;;8.27;88.32
77979;BME280;67169;50.268;8.694;2023-03-14T04:18:14;97493.53;;;8.36;87.12
77979;BME280;67169;50.268;8.694;2023-03-14T04:20:40;97495.34;;;8.36;86.98
77979;BME280;67169;50.268;8.694;2023-03-14T04:23:08;97510.00;;;8.44;86.11
77979;BME280;67169;50.268;8.694;2023-03-14T04:25:35;97475.94;;;8.32;86.44
77979;BME280;67169;50.268;8.694;2023-03-14T04:28:01;97500.44;;;8.40;86.70
77979;BME280;67169;50.268;8.694;2023-03-14T04:30:29;97496.03;;;8.39;86.86
77979;BME280;67169;50.268;8.694;2023-03-14T04:32:56;97489.06;;;8.37;86.92
77979;BME280;67169;50.268;8.694;2023-03-14T04:35:22;97492.59;;;8.37;87.05
77979;BME280;67169;50.268;8.694;2023-03-14T04:37:49;97489.91;;;8.37;87.03
77979;BME280;67169;50.268;8.694;2023-03-14T04:40:18;97478.91;;;8.42;86.54
77979;BME280;67169;50.268;8.694;2023-03-14T04:42:44;97486.38;;;8.37;87.05
77979;BME280;67169;50.268;8.694;2023-03-14T04:45:11;97490.84;;;8.36;87.30
77979;BME280;67169;50.268;8.694;2023-03-14T04:47:37;97489.81;;;8.39;86.81
77979;BME280;67169;50.268;8.694;2023-03-14T04:50:05;97480.53;;;8.44;85.93
77979;BME280;67169;50.268;8.694;2023-03-14T04:52:31;97482.81;;;8.50;85.57
77979;BME280;67169;50.268;8.694;2023-03-14T04:54:58;97478.75;;;8.58;84.67
77979;BME280;67169;50.268;8.694;2023-03-14T04:57:25;97469.97;;;8.55;84.93
77979;BME280;67169;50.268;8.694;2023-03-14T04:59:52;97470.81;;;8.56;84.70
77979;BME280;67169;50.268;8.694;2023-03-14T05:02:18;97462.97;;;8.53;85.00
77979;BME280;67169;50.268;8.694;2023-03-14T05:04:45;97471.31;;;8.48;85.73
77979;BME280;67169;50.268;8.694;2023-03-14T05:07:11;97457.31;;;8.58;84.56
77979;BME280;67169;50.268;8.694;2023-03-14T05:09:38;97458.38;;;8.55;84.58
77979;BME280;67169;50.268;8.694;2023-03-14T05:12:05;97456.47;;;8.57;83.77
77979;BME280;67169;50.268;8.694;2023-03-14T05:14:32;97473.94;;;8.63;83.72
77979;BME280;67169;50.268;8.694;2023-03-14T05:16:59;97470.31;;;8.64;83.75
77979;BME280;67169;50.268;8.694;2023-03-14T05:19:25;97464.00;;;8.65;83.22
77979;BME280;67169;50.268;8.694;2023-03-14T05:21:52;97461.09;;;8.68;83.00
77979;BME280;67169;50.268;8.694;2023-03-14T05:24:18;97468.72;;;8.74;82.30
77979;BME280;67169;50.268;8.694;2023-03-14T05:26:45;97448.56;;;8.68;82.65
77979;BME280;67169;50.268;8.694;2023-03-14T05:29:11;97452.63;;;8.74;81.88
77979;BME280;67169;50.268;8.694;2023-03-14T05:31:39;97443.84;;;8.72;82.24
77979;BME280;67169;50.268;8.694;2023-03-14T05:34:05;97447.28;;;8.74;81.80
77979;BME280;67169;50.268;8.694;2023-03-14T05:36:32;97436.78;;;8.71;82.08
77979;BME280;67169;50.268;8.694;2023-03-14T05:38:58;97431.50;;;8.69;82.22
77979;BME280;67169;50.268;8.694;2023-03-14T05:41:25;97433.53;;;8.66;82.25
77979;BME280;67169;50.268;8.694;2023-03-14T05:43:51;97440.84;;;8.64;82.50
77979;BME280;67169;50.268;8.694;2023-03-14T05:46:18;97435.69;;;8.61;82.29
77979;BME280;67169;50.268;8.694;2023-03-14T05:48:46;97432.81;;;8.64;82.10
77979;BME280;67169;50.268;8.694;2023-03-14T05:51:12;97419.28;;;8.65;81.80
77979;BME280;67169;50.268;8.694;2023-03-14T05:53:39;97420.91;;;8.68;81.55
77979;BME280;67169;50.268;8.694;2023-03-14T05:56:06;97413.41;;;8.73;81.14
77979;BME280;67169;50.268;8.694;2023-03-14T05:58:33;97393.69;;;8.61;80.92
77979;BME280;67169;50.268;8.694;2023-03-14T06:01:01;97389.06;;;8.76;80.61
77979;BME280;67169;50.268;8.694;2023-03-14T06:03:28;97388.88;;;8.79;80.23
77979;BME280;67169;50.268;8.694;2023-03-14T06:05:56;97391.97;;;8.73;80.88
77979;BME280;67169;50.268;8.694;2023-03-14T06:08:22;97391.22;;;8.71;80.63
77979;BME280;67169;50.268;8.694;2023-03-14T06:10:49;97390.13;;;8.73;80.73
77979;BME280;67169;50.268;8.694;2023-03-14T06:13:16;97394.22;;;8.79;79.53
77979;BME280;67169;50.268;8.694;2023-03-14T06:15:42;97399.25;;;8.84;79.93
77979;BME280;67169;50.268;8.694;2023-03-14T06:18:09;97394.75;;;8.84;79.57
77979;BME280;67169;50.268;8.694;2023-03-14T06:20:36;97395.63;;;8.85;79.78
77979;BME280;67169;50.268;8.694;2023-03-14T06:23:05;97388.75;;;8.80;80.46
77979;BME280;67169;50.268;8.694;2023-03-14T06:25:32;97355.72;;;8.54;80.33
77979;BME280;67169;50.268;8.694;2023-03-14T06:27:59;97400.56;;;8.78;80.58
77979;BME280;67169;50.268;8.694;2023-03-14T06:30:25;97391.75;;;8.76;80.65
77979;BME280;67169;50.268;8.694;2023-03-14T06:32:52;97406.78;;;8.78;80.71
77979;BME280;67169;50.268;8.694;2023-03-14T06:35:18;97401.41;;;8.78;80.74
77979;BME280;67169;50.268;8.694;2023-03-14T06:37:45;97406.44;;;8.83;79.96
77979;BME280;67169;50.268;8.694;2023-03-14T06:40:13;97402.16;;;8.80;80.15
77979;BME280;67169;50.268;8.694;2023-03-14T06:42:42;97412.78;;;8.82;80.08
77979;BME280;67169;50.268;8.694;2023-03-14T06:45:09;97409.25;;;8.82;79.71
77979;BME280;67169;50.268;8.694;2023-03-14T06:47:35;97397.88;;;8.78;79.76
77979;BME280;67169;50.268;8.694;2023-03-14T06:50:04;97411.28;;;8.78;79.90
77979;BME280;67169;50.268;8.694;2023-03-14T06:52:30;97415.47;;;8.82;79.68
77979;BME280;67169;50.268;8.694;2023-03-14T06:54:57;97408.59;;;8.78;79.78
77979;BME280;67169;50.268;8.694;2023-03-14T06:57:25;97404.81;;;8.80;79.50
77979;BME280;67169;50.268;8.694;2023-03-14T06:59:51;97425.41;;;8.80;80.23
77979;BME280;67169;50.268;8.694;2023-03-14T07:02:17;97423.38;;;8.71;80.94
77979;BME280;67169;50.268;8.694;2023-03-14T07:04:44;97431.06;;;8.63;81.76
77979;BME280;67169;50.268;8.694;2023-03-14T07:07:10;97430.81;;;8.53;82.77
77979;BME280;67169;50.268;8.694;2023-03-14T07:09:37;97430.38;;;8.46;83.57
77979;BME280;67169;50.268;8.694;2023-03-14T07:12:05;97432.19;;;8.46;83.47
77979;BME280;67169;50.268;8.694;2023-03-14T07:14:32;97440.34;;;8.44;83.79
77979;BME280;67169;50.268;8.694;2023-03-14T07:16:59;97437.28;;;8.50;82.68
77979;BME280;67169;50.268;8.694;2023-03-14T07:19:25;97435.91;;;8.58;82.11
77979;BME280;67169;50.268;8.694;2023-03-14T07:21:52;97438.50;;;8.72;80.80
77979;BME280;67169;50.268;8.694;2023-03-14T07:24:18;97419.53;;;8.75;80.48
77979;BME280;67169;50.268;8.694;2023-03-14T07:26:45;97417.06;;;8.72;80.45
77979;BME280;67169;50.268;8.694;2023-03-14T07:29:11;97418.16;;;8.82;80.37
77979;BME280;67169;50.268;8.694;2023-03-14T07:31:39;97424.25;;;8.84;80.39
77979;BME280;67169;50.268;8.694;2023-03-14T07:34:06;97420.91;;;8.80;81.19
77979;BME280;67169;50.268;8.694;2023-03-14T07:36:32;97421.78;;;8.68;81.82
77979;BME280;67169;50.268;8.694;2023-03-14T07:38:59;97418.53;;;8.63;82.42
77979;BME280;67169;50.268;8.694;2023-03-14T07:41:26;97406.44;;;8.58;82.18
77979;BME280;67169;50.268;8.694;2023-03-14T07:43:52;97419.09;;;8.68;82.16
77979;BME280;67169;50.268;8.694;2023-03-14T07:46:19;97413.59;;;8.70;82.59
77979;BME280;67169;50.268;8.694;2023-03-14T07:48:46;97408.69;;;8.76;81.81
77979;BME280;67169;50.268;8.694;2023-03-14T07:51:13;97408.59;;;8.78;82.57
77979;BME280;67169;50.268;8.694;2023-03-14T07:53:39;97413.63;;;8.83;82.82
77979;BME280;67169;50.268;8.694;2023-03-14T07:56:08;97404.81;;;8.80;82.19
77979;BME280;67169;50.268;8.694;2023-03-14T07:58:35;97405.06;;;8.90;81.96
77979;BME280;67169;50.268;8.694;2023-03-14T08:01:01;97404.63;;;8.96;82.14
77979;BME280;67169;50.268;8.694;2023-03-14T08:03:28;97404.31;;;9.01;82.57
77979;BME280;67169;50.268;8.694;2023-03-14T08:05:56;97419.22;;;8.92;83.35
77979;BME280;67169;50.268;8.694;2023-03-14T08:08:22;97412.44;;;8.74;84.97
77979;BME280;67169;50.268;8.694;2023-03-14T08:10:49;97390.97;;;8.48;86.64
77979;BME280;67169;50.268;8.694;2023-03-14T08:13:15;97403.75;;;8.58;86.78
77979;BME280;67169;50.268;8.694;2023-03-14T08:15:42;97378.63;;;8.46;86.03
77979;BME280;67169;50.268;8.694;2023-03-14T08:18:08;97407.59;;;8.53;86.45
77979;BME280;67169;50.268;8.694;2023-03-14T08:20:35;97395.91;;;8.54;87.38
77979;BME280;67169;50.268;8.694;2023-03-14T08:23:03;97396.25;;;8.50;86.89
77979;BME280;67169;50.268;8.694;2023-03-14T08:25:30;97406.44;;;8.58;87.62
77979;BME280;67169;50.268;8.694;2023-03-14T08:27:57;97412.97;;;8.53;88.22
77979;BME280;67169;50.268;8.694;2023-03-14T08:30:23;97418.94;;;8.44;88.28
77979;BME280;67169;50.268;8.694;2023-03-14T08:32:50;97419.97;;;8.42;88.36
77979;BME280;67169;50.268;8.694;2023-03-14T08:35:16;97407.44;;;8.42;88.24
77979;BME280;67169;50.268;8.694;2023-03-14T08:37:43;97422.66;;;8.42;87.91
77979;BME280;67169;50.268;8.694;2023-03-14T08:40:12;97419.97;;;8.42;88.19
77979;BME280;67169;50.268;8.694;2023-03-14T08:42:39;97417.59;;;8.37;87.56
77979;BME280;67169;50.268;8.694;2023-03-14T08:45:07;97426.00;;;8.45;87.88
77979;BME280;67169;50.268;8.694;2023-03-14T08:47:33;97425.78;;;8.48;87.92
77979;BME280;67169;50.268;8.694;2023-03-14T08:50:00;97421.28;;;8.49;87.59
77979;BME280;67169;50.268;8.694;2023-03-14T08:52:26;97419.25;;;8.52;87.82
77979;BME280;67169;50.268;8.694;2023-03-14T08:54:53;97434.38;;;8.53;87.51
77979;BME280;67169;50.268;8.694;2023-03-14T08:57:20;97436.09;;;8.54;87.58
77979;BME280;67169;50.268;8.694;2023-03-14T08:59:52;97420.69;;;8.58;86.88
77979;BME280;67169;50.268;8.694;2023-03-14T09:02:19;97430.44;;;8.72;86.04
77979;BME280;67169;50.268;8.694;2023-03-14T09:04:45;97438.41;;;8.86;86.20
77979;BME280;67169;50.268;8.694;2023-03-14T09:07:12;97435.31;;;9.18;84.41
77979;BME280;67169;50.268;8.694;2023-03-14T09:09:38;97436.59;;;9.50;84.21
77979;BME280;67169;50.268;8.694;2023-03-14T09:12:05;97431.75;;;9.56;82.70
77979;BME280;67169;50.268;8.694;2023-03-14T09:14:33;97438.84;;;9.57;83.54
77979;BME280;67169;50.268;8.694;2023-03-14T09:16:59;97444.44;;;9.54;84.37
77979;BME280;67169;50.268;8.694;2023-03-14T09:19:26;97436.19;;;9.31;85.59
77979;BME280;67169;50.268;8.694;2023-03-14T09:21:52;97446.25;;;9.15;86.26
77979;BME280;67169;50.268;8.694;2023-03-14T09:24:18;97455.38;;;8.99;87.95
77979;BME280;67169;50.268;8.694;2023-03-14T09:26:45;97408.81;;;8.75;88.71
77979;BME280;67169;50.268;8.694;2023-03-14T09:29:12;97443.88;;;8.97;89.43
77979;BME280;67169;50.268;8.694;2023-03-14T09:31:39;97426.28;;;8.93;88.76
77979;BME280;67169;50.268;8.694;2023-03-14T09:34:06;97456.34;;;8.98;88.27
77979;BME280;67169;50.268;8.694;2023-03-14T09:36:32;97458.69;;;9.03;89.49
77979;BME280;67169;50.268;8.694;2023-03-14T09:38:59;97436.16;;;8.93;88.34
77979;BME280;67169;50.268;8.694;2023-03-14T09:41:29;97463.63;;;8.96;89.25
77979;BME280;67169;50.268;8.694;2023-03-14T09:44:02;97459.03;;;8.98;89.42
77979;BME280;67169;50.268;8.694;2023-03-14T09:46:31;97461.16;;;9.06;89.94
77979;BME280;67169;50.268;8.694;2023-03-14T09:49:02;97471.34;;;9.14;89.84
77979;BME280;67169;50.268;8.694;2023-03-14T09:51:29;97466.75;;;9.03;88.61
77979;BME280;67169;50.268;8.694;2023-03-14T09:53:56;97464.03;;;8.90;88.40
77979;BME280;67169;50.268;8.694;2023-03-14T09:56:25;97474.56;;;8.93;89.30
77979;BME280;67169;50.268;8.694;2023-03-14T09:58:55;97459.97;;;8.97;89.92
77979;BME280;67169;50.268;8.694;2023-03-14T10:01:25;97474.16;;;9.12;89.43
77979;BME280;67169;50.268;8.694;2023-03-14T10:03:54;97471.34;;;9.01;89.53
77979;BME280;67169;50.268;8.694;2023-03-14T10:06:25;97452.00;;;8.83;89.72
77979;BME280;67169;50.268;8.694;2023-03-14T10:08:54;97462.22;;;8.91;90.12
77979;BME280;67169;50.268;8.694;2023-03-14T10:11:22;97470.78;;;8.83;90.15
77979;BME280;67169;50.268;8.694;2023-03-14T10:14:01;97457.94;;;8.88;90.48
77979;BME280;67169;50.268;8.694;2023-03-14T10:16:29;97461.25;;;8.92;90.62
77979;BME280;67169;50.268;8.694;2023-03-14T10:19:02;97458.16;;;8.85;90.56
77979;BME280;67169;50.268;8.694;2023-03-14T10:21:36;97454.28;;;8.89;90.45
77979;BME280;67169;50.268;8.694;2023-03-14T10:24:15;97455.06;;;8.91;90.34
77979;BME280;67169;50.268;8.694;2023-03-14T10:26:47;97400.94;;;8.59;90.37
77979;BME280;67169;50.268;8.694;2023-03-14T10:29:14;97452.56;;;8.88;90.20
77979;BME280;67169;50.268;8.694;2023-03-14T10:31:51;97453.72;;;8.84;90.03
77979;BME280;67169;50.268;8.694;2023-03-14T10:34:22;97445.16;;;8.79;90.50
77979;BME280;67169;50.268;8.694;2023-03-14T10:36:54;97441.72;;;8.77;90.49
77979;BME280;67169;50.268;8.694;2023-03-14T10:39:26;97444.31;;;8.78;90.62
77979;BME280;67169;50.268;8.694;2023-03-14T10:41:55;97444.63;;;8.87;91.16
77979;BME280;67169;50.268;8.694;2023-03-14T10:44:28;97445.91;;;8.94;90.77
77979;BME280;67169;50.268;8.694;2023-03-14T10:46:58;97445.63;;;8.98;90.27
77979;BME280;67169;50.268;8.694;2023-03-14T10:49:28;97428.00;;;8.82;89.99
77979;BME280;67169;50.268;8.694;2023-03-14T10:52:01;97449.03;;;9.00;90.26
77979;BME280;67169;50.268;8.694;2023-03-14T10:54:29;97443.59;;;9.02;90.57
77979;BME280;67169;50.268;8.694;2023-03-14T10:56:56;97454.75;;;9.09;90.31
77979;BME280;67169;50.268;8.694;2023-03-14T10:59:24;97446.78;;;9.07;90.34
77979;BME280;67169;50.268;8.694;2023-03-14T11:01:55;97447.56;;;9.09;90.92
77979;BME280;67169;50.268;8.694;2023-03-14T11:04:49;97442.94;;;9.11;90.83
77979;BME280;67169;50.268;8.694;2023-03-14T11:07:27;97452.47;;;9.02;90.56
77979;BME280;67169;50.268;8.694;2023-03-14T11:09:58;97449.69;;;9.04;91.58
77979;BME280;67169;50.268;8.694;2023-03-14T11:12:36;97440.69;;;9.05;91.09
77979;BME280;67169;50.268;8.694;2023-03-14T11:15:11;97402.88;;;8.70;91.46
77979;BME280;67169;50.268;8.694;2023-03-14T11:17:47;97452.38;;;8.91;91.78
77979;BME280;67169;50.268;8.694;2023-03-14T11:20:29;97456.75;;;8.92;92.29
77979;BME280;67169;50.268;8.694;2023-03-14T11:23:04;97453.44;;;8.89;92.59
77979;BME280;67169;50.268;8.694;2023-03-14T11:25:39;97451.19;;;8.95;93.25
77979;BME280;67169;50.268;8.694;2023-03-14T11:28:16;97447.41;;;8.85;92.75
77979;BME280;67169;50.268;8.694;2023-03-14T11:30:49;97451.28;;;8.81;93.17
77979;BME280;67169;50.268;8.694;2023-03-14T11:33:18;97456.13;;;8.89;93.42
77979;BME280;67169;50.268;8.694;2023-03-14T11:35:55;97454.50;;;8.86;93.49
77979;BME280;67169;50.268;8.694;2023-03-14T11:38:29;97452.22;;;8.80;93.57
77979;BME280;67169;50.268;8.694;2023-03-14T11:40:58;97456.84;;;8.78;93.61
77979;BME280;67169;50.268;8.694;2023-03-14T11:43:28;97443.09;;;8.70;93.49
77979;BME280;67169;50.268;8.694;2023-03-14T11:46:03;97452.75;;;8.72;93.43
77979;BME280;67169;50.268;8.694;2023-03-14T11:48:36;97450.31;;;8.82;93.74
77979;BME280;67169;50.268;8.694;2023-03-14T11:51:10;97453.50;;;8.87;93.51
77979;BME280;67169;50.268;8.694;2023-03-14T11:53:50;97455.06;;;8.91;93.39
77979;BME280;67169;50.268;8.694;2023-03-14T11:56:27;97453.97;;;8.94;93.67
77979;BME280;67169;50.268;8.694;2023-03-14T11:58:58;97453.75;;;8.97;93.76
77979;BME280;67169;50.268;8.694;2023-03-14T12:01:39;97489.00;;;8.91;93.34
77979;BME280;67169;50.268;8.694;2023-03-14T12:04:13;97559.59;;;8.64;93.64
77979;BME280;67169;50.268;8.694;2023-03-14T12:06:47;97585.00;;;8.01;83.76
77979;BME280;67169;50.268;8.694;2023-03-14T12:09:16;97596.31;;;7.78;87.35
77979;BME280;67169;50.268;8.694;2023-03-14T12:11:47;97592.56;;;7.66;86.13
77979;BME280;67169;50.268;8.694;2023-03-14T12:14:23;97596.22;;;7.35;83.86
77979;BME280;67169;50.268;8.694;2023-03-14T12:16:54;97577.75;;;7.16;84.12
77979;BME280;67169;50.268;8.694;2023-03-14T12:19:34;97578.16;;;6.94;84.08
77979;BME280;67169;50.268;8.694;2023-03-14T12:22:08;97559.53;;;6.93;83.60
77979;BME280;67169;50.268;8.694;2023-03-14T12:24:45;97543.84;;;7.02;83.61
77979;BME280;67169;50.268;8.694;2023-03-14T12:27:13;97552.75;;;7.17;83.36
77979;BME280;67169;50.268;8.694;2023-03-14T12:30:00;97562.56;;;7.17;83.31
77979;BME280;67169;50.268;8.694;2023-03-14T12:32:27;97541.84;;;7.06;85.37
77979;BME280;67169;50.268;8.694;2023-03-14T12:34:53;97529.88;;;6.97;84.31
77979;BME280;67169;50.268;8.694;2023-03-14T12:37:26;97531.53;;;7.14;84.02
77979;BME280;67169;50.268;8.694;2023-03-14T12:40:05;97562.59;;;7.31;82.46
77979;BME280;67169;50.268;8.694;2023-03-14T12:42:41;97560.41;;;7.37;83.45
77979;BME280;67169;50.268;8.694;2023-03-14T12:45:23;97548.69;;;7.40;81.60
77979;BME280;67169;50.268;8.694;2023-03-14T12:47:52;97588.69;;;7.42;81.44
77979;BME280;67169;50.268;8.694;2023-03-14T12:50:25;97603.91;;;7.55;81.63
77979;BME280;67169;50.268;8.694;2023-03-14T12:55:46;97628.91;;;7.99;81.09
77979;BME280;67169;50.268;8.694;2023-03-14T12:58:20;97667.75;;;8.49;78.01
77979;BME280;67169;50.268;8.694;2023-03-14T13:00:56;97676.50;;;8.79;75.84
77979;BME280;67169;50.268;8.694;2023-03-14T13:03:25;97669.13;;;8.83;75.93
77979;BME280;67169;50.268;8.694;2023-03-14T13:05:55;97688.81;;;8.96;73.75
77979;BME280;67169;50.268;8.694;2023-03-14T13:08:35;97704.44;;;8.90;73.13
77979;BME280;67169;50.268;8.694;2023-03-14T13:11:05;97716.63;;;9.22;74.96
77979;BME280;67169;50.268;8.694;2023-03-14T13:13:34;97727.75;;;9.16;71.33
77979;BME280;67169;50.268;8.694;2023-03-14T13:16:02;97713.94;;;8.67;72.63
77979;BME280;67169;50.268;8.694;2023-03-14T13:18:34;97749.81;;;8.93;73.32
77979;BME280;67169;50.268;8.694;2023-03-14T13:21:03;97750.13;;;8.88;70.76